sensor_id;sensor_type;location;lat;lon;timestamp;P1;durP1;ratioP1;P2;durP2;ratioP2
12228;SDS011;6177;52.402;9.800;2023-03-23T00:00:23;0.93;;;0.90;;
12228;SDS011;6177;52.402;9.800;2023-03-23T00:03:14;2.03;;;1.30;;
12228;SDS011;6177;52.402;9.800;2023-03-23T00:06:05;3.50;;;1.17;;
12228;SDS011;6177;52.402;9.800;2023-03-23T00:08:56;2.07;;;1.37;;
12228;SDS011;6177;52.402;9.800;2023-03-23T00:11:50;1.50;;;1.40;;
12228;SDS011;6177;52.402;9.800;2023-03-23T00:14:42;1.90;;;1.50;;
12228;SDS011;6177;52.402;9.800;2023-03-23T00:17:33;2.90;;;1.60;;
12228;SDS011;6177;52.402;9.800;2023-03-23T00:20:25;2.27;;;1.67;;
12228;SDS011;6177;52.402;9.800;2023-03-23T00:23:20;2.93;;;1.80;;
12228;SDS011;6177;52.402;9.800;2023-03-23T00:26:12;1.97;;;1.57;;
12228;SDS011;6177;52.402;9.800;2023-03-23T00:29:03;1.53;;;1.43;;
12228;SDS011;6177;52.402;9.800;2023-03-23T00:31:55;1.80;;;1.70;;
12228;SDS011;6177;52.402;9.800;2023-03-23T00:34:47;1.50;;;1.40;;
12228;SDS011;6177;52.402;9.800;2023-03-23T00:37:40;1.70;;;1.60;;
12228;SDS011;6177;52.402;9.800;2023-03-23T00:40:30;1.73;;;1.63;;
12228;SDS011;6177;52.402;9.800;2023-03-23T00:43:21;1.40;;;1.40;;
12228;SDS011;6177;52.402;9.800;2023-03-23T00:46:15;1.90;;;1.80;;
12228;SDS011;6177;52.402;9.800;2023-03-23T00:49:06;4.27;;;2.37;;
12228;SDS011;6177;52.402;9.800;2023-03-23T00:51:57;1.87;;;1.70;;
12228;SDS011;6177;52.402;9.800;2023-03-23T00:54:47;2.00;;;1.90;;
12228;SDS011;6177;52.402;9.800;2023-03-23T00:57:39;1.87;;;1.77;;
12228;SDS011;6177;52.402;9.800;2023-03-23T01:00:31;2.47;;;1.80;;
12228;SDS011;6177;52.402;9.800;2023-03-23T01:03:22;2.13;;;2.00;;
12228;SDS011;6177;52.402;9.800;2023-03-23T01:06:15;2.97;;;2.43;;
12228;SDS011;6177;52.402;9.800;2023-03-23T01:09:07;2.03;;;1.83;;
12228;SDS011;6177;52.402;9.800;2023-03-23T01:11:59;1.50;;;1.50;;
12228;SDS011;6177;52.402;9.800;2023-03-23T01:14:50;2.03;;;1.93;;
12228;SDS011;6177;52.402;9.800;2023-03-23T01:17:41;1.83;;;1.83;;
12228;SDS011;6177;52.402;9.800;2023-03-23T01:20:33;2.17;;;1.97;;
12228;SDS011;6177;52.402;9.800;2023-03-23T01:23:25;1.53;;;1.30;;
12228;SDS011;6177;52.402;9.800;2023-03-23T01:26:21;1.60;;;1.50;;
12228;SDS011;6177;52.402;9.800;2023-03-23T01:29:13;1.70;;;1.60;;
12228;SDS011;6177;52.402;9.800;2023-03-23T01:32:03;1.73;;;1.60;;
12228;SDS011;6177;52.402;9.800;2023-03-23T01:34:54;2.17;;;2.07;;
12228;SDS011;6177;52.402;9.800;2023-03-23T01:37:46;1.90;;;1.80;;
12228;SDS011;6177;52.402;9.800;2023-03-23T01:40:37;2.40;;;2.20;;
12228;SDS011;6177;52.402;9.800;2023-03-23T01:43:28;3.30;;;1.80;;
12228;SDS011;6177;52.402;9.800;2023-03-23T01:46:20;1.90;;;1.77;;
12228;SDS011;6177;52.402;9.800;2023-03-23T01:49:21;2.87;;;1.83;;
12228;SDS011;6177;52.402;9.800;2023-03-23T01:52:18;2.77;;;2.07;;
12228;SDS011;6177;52.402;9.800;2023-03-23T01:55:14;1.70;;;1.70;;
12228;SDS011;6177;52.402;9.800;2023-03-23T01:58:06;2.20;;;2.10;;
12228;SDS011;6177;52.402;9.800;2023-03-23T02:00:58;1.90;;;1.73;;
12228;SDS011;6177;52.402;9.800;2023-03-23T02:03:54;1.90;;;1.80;;
12228;SDS011;6177;52.402;9.800;2023-03-23T02:06:46;2.47;;;1.93;;
12228;SDS011;6177;52.402;9.800;2023-03-23T02:09:42;1.80;;;1.70;;
12228;SDS011;6177;52.402;9.800;2023-03-23T02:12:33;2.03;;;1.83;;
12228;SDS011;6177;52.402;9.800;2023-03-23T02:15:25;1.77;;;1.50;;
12228;SDS011;6177;52.402;9.800;2023-03-23T02:18:53;1.53;;;1.43;;
12228;SDS011;6177;52.402;9.800;2023-03-23T02:21:58;2.73;;;2.07;;
12228;SDS011;6177;52.402;9.800;2023-03-23T02:34:18;1.70;;;1.60;;
12228;SDS011;6177;52.402;9.800;2023-03-23T02:37:18;1.70;;;1.60;;
12228;SDS011;6177;52.402;9.800;2023-03-23T02:40:12;2.00;;;1.47;;
12228;SDS011;6177;52.402;9.800;2023-03-23T02:43:07;2.17;;;1.73;;
12228;SDS011;6177;52.402;9.800;2023-03-23T02:46:00;1.57;;;1.57;;
12228;SDS011;6177;52.402;9.800;2023-03-23T02:48:53;1.77;;;1.67;;
12228;SDS011;6177;52.402;9.800;2023-03-23T02:51:47;3.47;;;1.50;;
12228;SDS011;6177;52.402;9.800;2023-03-23T02:54:38;2.20;;;2.10;;
12228;SDS011;6177;52.402;9.800;2023-03-23T02:57:28;2.23;;;1.90;;
12228;SDS011;6177;52.402;9.800;2023-03-23T03:00:25;1.60;;;1.60;;
12228;SDS011;6177;52.402;9.800;2023-03-23T03:03:18;1.53;;;1.20;;
12228;SDS011;6177;52.402;9.800;2023-03-23T03:06:27;1.80;;;1.67;;
12228;SDS011;6177;52.402;9.800;2023-03-23T03:12:40;1.73;;;1.63;;
12228;SDS011;6177;52.402;9.800;2023-03-23T03:15:49;1.80;;;1.70;;
12228;SDS011;6177;52.402;9.800;2023-03-23T03:19:20;2.10;;;1.90;;
12228;SDS011;6177;52.402;9.800;2023-03-23T03:22:10;1.80;;;1.70;;
12228;SDS011;6177;52.402;9.800;2023-03-23T03:25:03;2.00;;;1.90;;
12228;SDS011;6177;52.402;9.800;2023-03-23T03:27:55;2.00;;;1.90;;
12228;SDS011;6177;52.402;9.800;2023-03-23T03:31:01;2.40;;;1.80;;
12228;SDS011;6177;52.402;9.800;2023-03-23T03:33:53;2.07;;;1.90;;
12228;SDS011;6177;52.402;9.800;2023-03-23T03:36:44;2.27;;;2.13;;
12228;SDS011;6177;52.402;9.800;2023-03-23T03:39:36;2.07;;;1.97;;
12228;SDS011;6177;52.402;9.800;2023-03-23T03:42:28;2.07;;;2.00;;
12228;SDS011;6177;52.402;9.800;2023-03-23T03:45:19;2.17;;;2.07;;
12228;SDS011;6177;52.402;9.800;2023-03-23T03:48:10;2.07;;;1.87;;
12228;SDS011;6177;52.402;9.800;2023-03-23T03:51:01;1.77;;;1.67;;
12228;SDS011;6177;52.402;9.800;2023-03-23T03:53:55;2.07;;;1.93;;
12228;SDS011;6177;52.402;9.800;2023-03-23T03:56:47;2.10;;;2.00;;
12228;SDS011;6177;52.402;9.800;2023-03-23T04:00:12;2.20;;;2.00;;
12228;SDS011;6177;52.402;9.800;2023-03-23T04:03:09;2.37;;;1.83;;
12228;SDS011;6177;52.402;9.800;2023-03-23T04:06:22;1.70;;;1.60;;
12228;SDS011;6177;52.402;9.800;2023-03-23T04:09:15;2.13;;;1.93;;
12228;SDS011;6177;52.402;9.800;2023-03-23T04:12:06;2.97;;;1.77;;
12228;SDS011;6177;52.402;9.800;2023-03-23T04:15:20;2.60;;;1.90;;
12228;SDS011;6177;52.402;9.800;2023-03-23T04:18:12;1.87;;;1.67;;
12228;SDS011;6177;52.402;9.800;2023-03-23T04:21:05;1.90;;;1.80;;
12228;SDS011;6177;52.402;9.800;2023-03-23T04:23:57;1.60;;;1.60;;
12228;SDS011;6177;52.402;9.800;2023-03-23T04:26:50;1.50;;;1.40;;
12228;SDS011;6177;52.402;9.800;2023-03-23T04:29:49;1.67;;;1.40;;
12228;SDS011;6177;52.402;9.800;2023-03-23T04:32:58;1.90;;;1.70;;
12228;SDS011;6177;52.402;9.800;2023-03-23T04:35:51;2.30;;;1.43;;
12228;SDS011;6177;52.402;9.800;2023-03-23T04:38:55;1.70;;;1.70;;
12228;SDS011;6177;52.402;9.800;2023-03-23T04:41:47;2.43;;;1.70;;
12228;SDS011;6177;52.402;9.800;2023-03-23T04:44:44;1.40;;;1.30;;
12228;SDS011;6177;52.402;9.800;2023-03-23T04:47:44;2.00;;;1.80;;
12228;SDS011;6177;52.402;9.800;2023-03-23T04:50:45;1.57;;;1.50;;
12228;SDS011;6177;52.402;9.800;2023-03-23T04:53:44;2.07;;;1.87;;
12228;SDS011;6177;52.402;9.800;2023-03-23T04:56:35;1.60;;;1.60;;
12228;SDS011;6177;52.402;9.800;2023-03-23T04:59:32;1.80;;;1.70;;
12228;SDS011;6177;52.402;9.800;2023-03-23T05:02:37;1.73;;;1.40;;
12228;SDS011;6177;52.402;9.800;2023-03-23T05:05:30;1.43;;;1.33;;
12228;SDS011;6177;52.402;9.800;2023-03-23T05:08:25;1.57;;;1.47;;
12228;SDS011;6177;52.402;9.800;2023-03-23T05:11:16;1.70;;;1.43;;
12228;SDS011;6177;52.402;9.800;2023-03-23T05:14:08;2.13;;;1.50;;
12228;SDS011;6177;52.402;9.800;2023-03-23T05:16:59;1.30;;;1.27;;
12228;SDS011;6177;52.402;9.800;2023-03-23T05:19:50;1.50;;;1.30;;
12228;SDS011;6177;52.402;9.800;2023-03-23T05:23:13;1.43;;;1.33;;
12228;SDS011;6177;52.402;9.800;2023-03-23T05:26:05;1.30;;;1.20;;
12228;SDS011;6177;52.402;9.800;2023-03-23T05:28:57;3.37;;;1.63;;
12228;SDS011;6177;52.402;9.800;2023-03-23T05:31:59;0.90;;;0.90;;
12228;SDS011;6177;52.402;9.800;2023-03-23T05:34:51;1.13;;;1.03;;
12228;SDS011;6177;52.402;9.800;2023-03-23T05:37:42;1.13;;;1.10;;
12228;SDS011;6177;52.402;9.800;2023-03-23T05:40:35;0.73;;;0.73;;
12228;SDS011;6177;52.402;9.800;2023-03-23T05:43:33;1.73;;;1.50;;
12228;SDS011;6177;52.402;9.800;2023-03-23T05:46:42;1.27;;;1.27;;
12228;SDS011;6177;52.402;9.800;2023-03-23T05:49:33;0.97;;;0.97;;
12228;SDS011;6177;52.402;9.800;2023-03-23T05:52:27;1.13;;;1.13;;
12228;SDS011;6177;52.402;9.800;2023-03-23T05:55:19;1.03;;;1.00;;
12228;SDS011;6177;52.402;9.800;2023-03-23T05:58:18;0.90;;;0.90;;
12228;SDS011;6177;52.402;9.800;2023-03-23T06:01:10;1.27;;;1.10;;
12228;SDS011;6177;52.402;9.800;2023-03-23T06:04:05;1.40;;;1.30;;
12228;SDS011;6177;52.402;9.800;2023-03-23T06:07:08;2.47;;;1.10;;
12228;SDS011;6177;52.402;9.800;2023-03-23T06:10:05;0.97;;;0.97;;
12228;SDS011;6177;52.402;9.800;2023-03-23T06:13:03;1.00;;;1.00;;
12228;SDS011;6177;52.402;9.800;2023-03-23T06:16:00;0.80;;;0.70;;
12228;SDS011;6177;52.402;9.800;2023-03-23T06:19:10;1.10;;;0.97;;
12228;SDS011;6177;52.402;9.800;2023-03-23T06:22:07;2.23;;;0.93;;
12228;SDS011;6177;52.402;9.800;2023-03-23T06:25:18;0.77;;;0.77;;
12228;SDS011;6177;52.402;9.800;2023-03-23T06:28:09;0.70;;;0.70;;
12228;SDS011;6177;52.402;9.800;2023-03-23T06:31:05;1.07;;;0.80;;
12228;SDS011;6177;52.402;9.800;2023-03-23T06:33:59;0.67;;;0.67;;
12228;SDS011;6177;52.402;9.800;2023-03-23T06:36:50;0.70;;;0.70;;
12228;SDS011;6177;52.402;9.800;2023-03-23T06:39:54;0.70;;;0.70;;
12228;SDS011;6177;52.402;9.800;2023-03-23T06:42:52;0.70;;;0.70;;
12228;SDS011;6177;52.402;9.800;2023-03-23T06:46:08;1.00;;;0.90;;
12228;SDS011;6177;52.402;9.800;2023-03-23T06:49:06;1.33;;;0.40;;
12228;SDS011;6177;52.402;9.800;2023-03-23T06:52:08;0.77;;;0.77;;
12228;SDS011;6177;52.402;9.800;2023-03-23T06:54:59;0.60;;;0.60;;
12228;SDS011;6177;52.402;9.800;2023-03-23T06:57:50;0.70;;;0.70;;
12228;SDS011;6177;52.402;9.800;2023-03-23T07:00:41;0.67;;;0.67;;
12228;SDS011;6177;52.402;9.800;2023-03-23T07:03:34;0.60;;;0.60;;
12228;SDS011;6177;52.402;9.800;2023-03-23T07:06:24;1.23;;;0.90;;
12228;SDS011;6177;52.402;9.800;2023-03-23T07:09:21;0.60;;;0.60;;
12228;SDS011;6177;52.402;9.800;2023-03-23T07:12:13;0.70;;;0.70;;
12228;SDS011;6177;52.402;9.800;2023-03-23T07:15:09;0.77;;;0.70;;
12228;SDS011;6177;52.402;9.800;2023-03-23T07:18:03;0.80;;;0.80;;
12228;SDS011;6177;52.402;9.800;2023-03-23T07:21:03;0.70;;;0.70;;
12228;SDS011;6177;52.402;9.800;2023-03-23T07:23:56;0.80;;;0.80;;
12228;SDS011;6177;52.402;9.800;2023-03-23T07:27:01;0.97;;;0.97;;
12228;SDS011;6177;52.402;9.800;2023-03-23T07:29:54;0.77;;;0.77;;
12228;SDS011;6177;52.402;9.800;2023-03-23T07:32:49;1.10;;;0.80;;
12228;SDS011;6177;52.402;9.800;2023-03-23T07:35:42;1.10;;;1.00;;
12228;SDS011;6177;52.402;9.800;2023-03-23T07:38:37;0.67;;;0.67;;
12228;SDS011;6177;52.402;9.800;2023-03-23T07:41:28;0.90;;;0.90;;
12228;SDS011;6177;52.402;9.800;2023-03-23T07:44:20;0.83;;;0.83;;
12228;SDS011;6177;52.402;9.800;2023-03-23T07:47:14;0.60;;;0.60;;
12228;SDS011;6177;52.402;9.800;2023-03-23T07:50:05;0.83;;;0.83;;
12228;SDS011;6177;52.402;9.800;2023-03-23T07:53:01;0.90;;;0.90;;
12228;SDS011;6177;52.402;9.800;2023-03-23T07:55:54;0.70;;;0.70;;
12228;SDS011;6177;52.402;9.800;2023-03-23T07:59:08;1.03;;;0.87;;
12228;SDS011;6177;52.402;9.800;2023-03-23T08:02:02;0.80;;;0.80;;
12228;SDS011;6177;52.402;9.800;2023-03-23T08:04:58;0.97;;;0.97;;
12228;SDS011;6177;52.402;9.800;2023-03-23T08:08:20;1.20;;;1.10;;
12228;SDS011;6177;52.402;9.800;2023-03-23T08:11:36;0.83;;;0.83;;
12228;SDS011;6177;52.402;9.800;2023-03-23T08:14:49;1.10;;;1.00;;
12228;SDS011;6177;52.402;9.800;2023-03-23T08:17:58;0.90;;;0.90;;
12228;SDS011;6177;52.402;9.800;2023-03-23T08:21:09;2.27;;;0.87;;
12228;SDS011;6177;52.402;9.800;2023-03-23T08:24:12;1.23;;;1.23;;
12228;SDS011;6177;52.402;9.800;2023-03-23T08:27:15;2.33;;;0.80;;
12228;SDS011;6177;52.402;9.800;2023-03-23T08:30:06;1.63;;;1.17;;
12228;SDS011;6177;52.402;9.800;2023-03-23T08:33:16;1.23;;;1.17;;
12228;SDS011;6177;52.402;9.800;2023-03-23T08:36:23;1.43;;;1.10;;
12228;SDS011;6177;52.402;9.800;2023-03-23T08:39:34;1.00;;;1.00;;
12228;SDS011;6177;52.402;9.800;2023-03-23T08:42:44;1.00;;;0.90;;
12228;SDS011;6177;52.402;9.800;2023-03-23T08:45:55;1.63;;;1.10;;
12228;SDS011;6177;52.402;9.800;2023-03-23T08:49:05;1.77;;;1.13;;
12228;SDS011;6177;52.402;9.800;2023-03-23T08:52:31;3.40;;;1.50;;
12228;SDS011;6177;52.402;9.800;2023-03-23T08:55:42;1.40;;;1.30;;
12228;SDS011;6177;52.402;9.800;2023-03-23T08:58:59;1.20;;;1.10;;
12228;SDS011;6177;52.402;9.800;2023-03-23T09:02:12;1.07;;;1.03;;
12228;SDS011;6177;52.402;9.800;2023-03-23T09:05:11;2.13;;;1.10;;
12228;SDS011;6177;52.402;9.800;2023-03-23T09:08:27;1.83;;;1.23;;
12228;SDS011;6177;52.402;9.800;2023-03-23T09:11:19;1.20;;;1.10;;
12228;SDS011;6177;52.402;9.800;2023-03-23T09:14:10;2.87;;;1.10;;
12228;SDS011;6177;52.402;9.800;2023-03-23T09:17:01;1.47;;;1.23;;
12228;SDS011;6177;52.402;9.800;2023-03-23T09:19:53;2.87;;;1.30;;
12228;SDS011;6177;52.402;9.800;2023-03-23T09:22:45;1.73;;;1.40;;
12228;SDS011;6177;52.402;9.800;2023-03-23T09:25:37;2.80;;;1.40;;
12228;SDS011;6177;52.402;9.800;2023-03-23T09:28:28;1.50;;;1.17;;
12228;SDS011;6177;52.402;9.800;2023-03-23T09:31:19;1.17;;;1.07;;
12228;SDS011;6177;52.402;9.800;2023-03-23T09:34:13;1.67;;;1.20;;
12228;SDS011;6177;52.402;9.800;2023-03-23T09:37:05;2.03;;;1.77;;
12228;SDS011;6177;52.402;9.800;2023-03-23T09:39:56;2.17;;;1.40;;
12228;SDS011;6177;52.402;9.800;2023-03-23T09:42:53;1.50;;;1.27;;
12228;SDS011;6177;52.402;9.800;2023-03-23T09:48:59;4.50;;;1.63;;
12228;SDS011;6177;52.402;9.800;2023-03-23T09:51:54;1.40;;;1.30;;
12228;SDS011;6177;52.402;9.800;2023-03-23T09:54:52;2.13;;;1.20;;
12228;SDS011;6177;52.402;9.800;2023-03-23T09:58:09;3.73;;;1.40;;
12228;SDS011;6177;52.402;9.800;2023-03-23T10:07:28;2.70;;;1.50;;
12228;SDS011;6177;52.402;9.800;2023-03-23T10:10:19;1.93;;;1.40;;
12228;SDS011;6177;52.402;9.800;2023-03-23T10:16:36;2.53;;;2.10;;
12228;SDS011;6177;52.402;9.800;2023-03-23T10:19:33;2.43;;;1.40;;
12228;SDS011;6177;52.402;9.800;2023-03-23T10:22:31;1.50;;;1.40;;
12228;SDS011;6177;52.402;9.800;2023-03-23T10:25:23;2.07;;;1.50;;
12228;SDS011;6177;52.402;9.800;2023-03-23T10:28:20;2.17;;;1.37;;
12228;SDS011;6177;52.402;9.800;2023-03-23T10:31:24;3.77;;;1.70;;
12228;SDS011;6177;52.402;9.800;2023-03-23T10:34:29;3.47;;;1.93;;
12228;SDS011;6177;52.402;9.800;2023-03-23T10:37:38;4.23;;;1.47;;
12228;SDS011;6177;52.402;9.800;2023-03-23T10:40:48;1.50;;;1.30;;
12228;SDS011;6177;52.402;9.800;2023-03-23T10:43:41;3.43;;;1.60;;
12228;SDS011;6177;52.402;9.800;2023-03-23T10:49:34;2.20;;;1.50;;
12228;SDS011;6177;52.402;9.800;2023-03-23T10:55:37;1.17;;;1.10;;
12228;SDS011;6177;52.402;9.800;2023-03-23T10:58:30;1.23;;;1.13;;
12228;SDS011;6177;52.402;9.800;2023-03-23T11:01:31;2.40;;;1.50;;
12228;SDS011;6177;52.402;9.800;2023-03-23T11:04:23;1.83;;;1.73;;
12228;SDS011;6177;52.402;9.800;2023-03-23T11:07:17;2.83;;;1.48;;
12228;SDS011;6177;52.402;9.800;2023-03-23T11:10:16;1.20;;;1.00;;
12228;SDS011;6177;52.402;9.800;2023-03-23T11:13:18;3.83;;;1.65;;
12228;SDS011;6177;52.402;9.800;2023-03-23T11:16:10;2.45;;;1.20;;
12228;SDS011;6177;52.402;9.800;2023-03-23T11:19:14;2.17;;;1.98;;
12228;SDS011;6177;52.402;9.800;2023-03-23T11:22:07;2.05;;;1.85;;
12228;SDS011;6177;52.402;9.800;2023-03-23T11:25:04;2.53;;;1.90;;
12228;SDS011;6177;52.402;9.800;2023-03-23T11:27:56;1.30;;;1.20;;
12228;SDS011;6177;52.402;9.800;2023-03-23T11:30:47;5.18;;;1.85;;
12228;SDS011;6177;52.402;9.800;2023-03-23T11:33:46;3.27;;;1.73;;
12228;SDS011;6177;52.402;9.800;2023-03-23T11:36:39;2.05;;;1.52;;
12228;SDS011;6177;52.402;9.800;2023-03-23T11:45:48;4.30;;;1.90;;
12228;SDS011;6177;52.402;9.800;2023-03-23T11:51:39;2.65;;;1.73;;
12228;SDS011;6177;52.402;9.800;2023-03-23T11:54:34;3.30;;;1.40;;
12228;SDS011;6177;52.402;9.800;2023-03-23T11:57:27;2.95;;;0.93;;
12228;SDS011;6177;52.402;9.800;2023-03-23T12:00:20;3.63;;;2.00;;
12228;SDS011;6177;52.402;9.800;2023-03-23T12:03:25;3.10;;;1.80;;
12228;SDS011;6177;52.402;9.800;2023-03-23T12:10:08;4.30;;;2.00;;
12228;SDS011;6177;52.402;9.800;2023-03-23T12:13:18;4.53;;;2.13;;
12228;SDS011;6177;52.402;9.800;2023-03-23T12:17:14;2.40;;;2.03;;
12228;SDS011;6177;52.402;9.800;2023-03-23T12:23:19;2.27;;;1.87;;
12228;SDS011;6177;52.402;9.800;2023-03-23T12:26:24;3.27;;;2.10;;
12228;SDS011;6177;52.402;9.800;2023-03-23T12:35:33;1.20;;;1.20;;
12228;SDS011;6177;52.402;9.800;2023-03-23T12:38:33;1.47;;;1.37;;
12228;SDS011;6177;52.402;9.800;2023-03-23T12:41:54;1.23;;;1.10;;
12228;SDS011;6177;52.402;9.800;2023-03-23T12:44:53;0.90;;;0.90;;
12228;SDS011;6177;52.402;9.800;2023-03-23T12:47:57;1.83;;;1.00;;
12228;SDS011;6177;52.402;9.800;2023-03-23T12:53:51;1.47;;;1.03;;
12228;SDS011;6177;52.402;9.800;2023-03-23T12:57:00;1.37;;;1.10;;
12228;SDS011;6177;52.402;9.800;2023-03-23T13:00:12;1.23;;;1.10;;
12228;SDS011;6177;52.402;9.800;2023-03-23T13:03:09;0.80;;;0.80;;
12228;SDS011;6177;52.402;9.800;2023-03-23T13:06:15;0.60;;;0.60;;
12228;SDS011;6177;52.402;9.800;2023-03-23T13:12:05;0.50;;;0.50;;
12228;SDS011;6177;52.402;9.800;2023-03-23T13:18:19;0.40;;;0.40;;
12228;SDS011;6177;52.402;9.800;2023-03-23T13:24:35;0.53;;;0.30;;
12228;SDS011;6177;52.402;9.800;2023-03-23T13:27:27;1.40;;;0.50;;
12228;SDS011;6177;52.402;9.800;2023-03-23T13:30:21;0.60;;;0.60;;
12228;SDS011;6177;52.402;9.800;2023-03-23T13:33:13;0.40;;;0.40;;
12228;SDS011;6177;52.402;9.800;2023-03-23T13:36:08;0.73;;;0.57;;
12228;SDS011;6177;52.402;9.800;2023-03-23T13:39:00;0.40;;;0.40;;
12228;SDS011;6177;52.402;9.800;2023-03-23T13:44:57;0.27;;;0.27;;
12228;SDS011;6177;52.402;9.800;2023-03-23T13:48:20;0.20;;;0.20;;
12228;SDS011;6177;52.402;9.800;2023-03-23T13:52:16;0.40;;;0.30;;
12228;SDS011;6177;52.402;9.800;2023-03-23T14:03:25;0.53;;;0.27;;
12228;SDS011;6177;52.402;9.800;2023-03-23T14:06:22;0.67;;;0.30;;
12228;SDS011;6177;52.402;9.800;2023-03-23T14:09:39;0.93;;;0.30;;
12228;SDS011;6177;52.402;9.800;2023-03-23T14:12:31;0.40;;;0.30;;
12228;SDS011;6177;52.402;9.800;2023-03-23T14:15:23;0.33;;;0.30;;
12228;SDS011;6177;52.402;9.800;2023-03-23T14:18:19;0.50;;;0.50;;
12228;SDS011;6177;52.402;9.800;2023-03-23T14:21:16;0.40;;;0.30;;
12228;SDS011;6177;52.402;9.800;2023-03-23T14:24:12;0.37;;;0.23;;
12228;SDS011;6177;52.402;9.800;2023-03-23T14:30:02;0.50;;;0.50;;
12228;SDS011;6177;52.402;9.800;2023-03-23T14:33:03;0.30;;;0.30;;
12228;SDS011;6177;52.402;9.800;2023-03-23T14:35:57;0.47;;;0.37;;
12228;SDS011;6177;52.402;9.800;2023-03-23T14:38:49;0.43;;;0.43;;
12228;SDS011;6177;52.402;9.800;2023-03-23T14:41:47;0.97;;;0.30;;
12228;SDS011;6177;52.402;9.800;2023-03-23T14:44:48;0.73;;;0.40;;
12228;SDS011;6177;52.402;9.800;2023-03-23T14:47:40;0.67;;;0.20;;
12228;SDS011;6177;52.402;9.800;2023-03-23T14:50:41;1.03;;;0.33;;
12228;SDS011;6177;52.402;9.800;2023-03-23T14:53:39;0.60;;;0.60;;
12228;SDS011;6177;52.402;9.800;2023-03-23T14:56:32;1.60;;;0.60;;
12228;SDS011;6177;52.402;9.800;2023-03-23T14:59:25;0.70;;;0.60;;
12228;SDS011;6177;52.402;9.800;2023-03-23T15:02:20;0.87;;;0.60;;
12228;SDS011;6177;52.402;9.800;2023-03-23T15:05:15;2.00;;;0.90;;
12228;SDS011;6177;52.402;9.800;2023-03-23T15:08:17;2.20;;;1.00;;
12228;SDS011;6177;52.402;9.800;2023-03-23T15:14:08;0.70;;;0.70;;
12228;SDS011;6177;52.402;9.800;2023-03-23T15:17:05;1.50;;;0.70;;
12228;SDS011;6177;52.402;9.800;2023-03-23T15:19:56;0.60;;;0.60;;
12228;SDS011;6177;52.402;9.800;2023-03-23T15:22:48;0.80;;;0.80;;
12228;SDS011;6177;52.402;9.800;2023-03-23T15:25:39;0.57;;;0.57;;
12228;SDS011;6177;52.402;9.800;2023-03-23T15:28:32;0.60;;;0.60;;
12228;SDS011;6177;52.402;9.800;2023-03-23T15:31:23;0.87;;;0.43;;
12228;SDS011;6177;52.402;9.800;2023-03-23T15:34:33;0.40;;;0.30;;
12228;SDS011;6177;52.402;9.800;2023-03-23T15:37:30;0.60;;;0.60;;
12228;SDS011;6177;52.402;9.800;2023-03-23T15:40:21;1.30;;;0.63;;
12228;SDS011;6177;52.402;9.800;2023-03-23T15:43:20;0.60;;;0.60;;
12228;SDS011;6177;52.402;9.800;2023-03-23T15:49:08;0.63;;;0.63;;
12228;SDS011;6177;52.402;9.800;2023-03-23T15:52:01;0.93;;;0.67;;
12228;SDS011;6177;52.402;9.800;2023-03-23T15:54:52;2.03;;;0.53;;
12228;SDS011;6177;52.402;9.800;2023-03-23T15:57:43;0.50;;;0.50;;
12228;SDS011;6177;52.402;9.800;2023-03-23T16:00:34;0.70;;;0.70;;
12228;SDS011;6177;52.402;9.800;2023-03-23T16:03:40;0.60;;;0.60;;
12228;SDS011;6177;52.402;9.800;2023-03-23T16:06:34;1.03;;;0.50;;
12228;SDS011;6177;52.402;9.800;2023-03-23T16:09:25;0.90;;;0.82;;
12228;SDS011;6177;52.402;9.800;2023-03-23T16:12:16;0.60;;;0.60;;
12228;SDS011;6177;52.402;9.800;2023-03-23T16:15:08;0.52;;;0.52;;
12228;SDS011;6177;52.402;9.800;2023-03-23T16:18:00;0.60;;;0.60;;
12228;SDS011;6177;52.402;9.800;2023-03-23T16:20:51;0.50;;;0.50;;
12228;SDS011;6177;52.402;9.800;2023-03-23T16:23:42;0.60;;;0.60;;
12228;SDS011;6177;52.402;9.800;2023-03-23T16:26:35;0.60;;;0.60;;
12228;SDS011;6177;52.402;9.800;2023-03-23T16:29:27;0.95;;;0.80;;
12228;SDS011;6177;52.402;9.800;2023-03-23T16:32:18;0.68;;;0.68;;
12228;SDS011;6177;52.402;9.800;2023-03-23T16:35:08;0.80;;;0.80;;
12228;SDS011;6177;52.402;9.800;2023-03-23T16:38:00;1.02;;;1.00;;
12228;SDS011;6177;52.402;9.800;2023-03-23T16:40:51;1.05;;;0.80;;
12228;SDS011;6177;52.402;9.800;2023-03-23T16:43:42;0.65;;;0.65;;
12228;SDS011;6177;52.402;9.800;2023-03-23T16:46:33;1.23;;;0.70;;
12228;SDS011;6177;52.402;9.800;2023-03-23T16:49:24;1.63;;;0.90;;
12228;SDS011;6177;52.402;9.800;2023-03-23T16:52:15;0.90;;;0.90;;
12228;SDS011;6177;52.402;9.800;2023-03-23T16:55:07;0.77;;;0.77;;
12228;SDS011;6177;52.402;9.800;2023-03-23T16:57:59;1.23;;;0.80;;
12228;SDS011;6177;52.402;9.800;2023-03-23T17:00:50;0.67;;;0.67;;
12228;SDS011;6177;52.402;9.800;2023-03-23T17:03:41;1.57;;;0.80;;
12228;SDS011;6177;52.402;9.800;2023-03-23T17:06:32;1.10;;;0.80;;
12228;SDS011;6177;52.402;9.800;2023-03-23T17:09:26;1.00;;;1.00;;
12228;SDS011;6177;52.402;9.800;2023-03-23T17:12:17;1.00;;;0.70;;
12228;SDS011;6177;52.402;9.800;2023-03-23T17:15:08;2.63;;;1.20;;
12228;SDS011;6177;52.402;9.800;2023-03-23T17:18:00;1.63;;;0.97;;
12228;SDS011;6177;52.402;9.800;2023-03-23T17:20:51;0.93;;;0.87;;
12228;SDS011;6177;52.402;9.800;2023-03-23T17:23:43;1.23;;;1.13;;
12228;SDS011;6177;52.402;9.800;2023-03-23T17:26:35;1.10;;;1.10;;
12228;SDS011;6177;52.402;9.800;2023-03-23T17:29:26;1.17;;;1.17;;
12228;SDS011;6177;52.402;9.800;2023-03-23T17:32:17;1.60;;;1.17;;
12228;SDS011;6177;52.402;9.800;2023-03-23T17:35:08;1.50;;;1.40;;
12228;SDS011;6177;52.402;9.800;2023-03-23T17:37:59;1.40;;;1.30;;
12228;SDS011;6177;52.402;9.800;2023-03-23T17:40:57;1.20;;;1.20;;
12228;SDS011;6177;52.402;9.800;2023-03-23T17:43:49;1.77;;;1.10;;
12228;SDS011;6177;52.402;9.800;2023-03-23T17:46:40;1.80;;;1.50;;
12228;SDS011;6177;52.402;9.800;2023-03-23T17:49:31;1.50;;;1.23;;
12228;SDS011;6177;52.402;9.800;2023-03-23T17:52:23;1.70;;;1.40;;
12228;SDS011;6177;52.402;9.800;2023-03-23T17:55:13;1.40;;;1.30;;
12228;SDS011;6177;52.402;9.800;2023-03-23T17:58:04;1.80;;;1.70;;
12228;SDS011;6177;52.402;9.800;2023-03-23T18:00:55;1.70;;;1.43;;
12228;SDS011;6177;52.402;9.800;2023-03-23T18:03:46;2.37;;;1.60;;
12228;SDS011;6177;52.402;9.800;2023-03-23T18:06:37;2.40;;;1.67;;
12228;SDS011;6177;52.402;9.800;2023-03-23T18:09:28;1.70;;;1.50;;
12228;SDS011;6177;52.402;9.800;2023-03-23T18:12:19;2.27;;;1.20;;
12228;SDS011;6177;52.402;9.800;2023-03-23T18:15:10;3.30;;;1.90;;
12228;SDS011;6177;52.402;9.800;2023-03-23T18:18:02;2.33;;;1.77;;
12228;SDS011;6177;52.402;9.800;2023-03-23T18:20:55;3.40;;;1.83;;
12228;SDS011;6177;52.402;9.800;2023-03-23T18:23:47;2.67;;;1.80;;
12228;SDS011;6177;52.402;9.800;2023-03-23T18:26:38;2.17;;;1.80;;
12228;SDS011;6177;52.402;9.800;2023-03-23T18:29:29;2.37;;;1.77;;
12228;SDS011;6177;52.402;9.800;2023-03-23T18:32:20;2.17;;;1.97;;
12228;SDS011;6177;52.402;9.800;2023-03-23T18:35:11;2.27;;;2.07;;
12228;SDS011;6177;52.402;9.800;2023-03-23T18:38:02;1.83;;;1.73;;
12228;SDS011;6177;52.402;9.800;2023-03-23T18:40:53;1.60;;;1.60;;
12228;SDS011;6177;52.402;9.800;2023-03-23T18:43:44;1.60;;;1.60;;
12228;SDS011;6177;52.402;9.800;2023-03-23T18:46:35;2.23;;;2.00;;
12228;SDS011;6177;52.402;9.800;2023-03-23T18:49:26;1.80;;;1.70;;
12228;SDS011;6177;52.402;9.800;2023-03-23T18:52:18;3.03;;;1.90;;
12228;SDS011;6177;52.402;9.800;2023-03-23T18:55:09;2.10;;;2.00;;
12228;SDS011;6177;52.402;9.800;2023-03-23T18:58:00;2.17;;;1.90;;
12228;SDS011;6177;52.402;9.800;2023-03-23T19:00:54;1.47;;;1.30;;
12228;SDS011;6177;52.402;9.800;2023-03-23T19:03:45;1.90;;;1.80;;
12228;SDS011;6177;52.402;9.800;2023-03-23T19:06:36;1.90;;;1.80;;
12228;SDS011;6177;52.402;9.800;2023-03-23T19:09:28;1.63;;;1.40;;
12228;SDS011;6177;52.402;9.800;2023-03-23T19:12:19;1.67;;;1.57;;
12228;SDS011;6177;52.402;9.800;2023-03-23T19:15:11;1.87;;;1.77;;
12228;SDS011;6177;52.402;9.800;2023-03-23T19:18:02;2.10;;;2.00;;
12228;SDS011;6177;52.402;9.800;2023-03-23T19:20:53;2.37;;;2.23;;
12228;SDS011;6177;52.402;9.800;2023-03-23T19:23:44;2.13;;;1.67;;